createdAt,value
2023-05-22T00:02:41.117Z,14.6
2023-05-22T00:14:09.862Z,14.7
2023-05-22T00:19:31.681Z,14.7
2023-05-22T00:25:09.165Z,14.7
2023-05-22T00:30:33.198Z,14.6
2023-05-22T00:36:20.650Z,14.6
2023-05-22T00:41:42.385Z,14.7
2023-05-22T00:47:11.069Z,14.5
2023-05-22T00:58:35.068Z,14.4
2023-05-22T01:04:05.379Z,14.4
2023-05-22T01:09:32.359Z,14.2
2023-05-22T01:15:03.683Z,13.7
2023-05-22T01:20:54.338Z,13.5
2023-05-22T01:26:03.170Z,13.8
2023-05-22T01:31:38.004Z,13.8
2023-05-22T01:37:38.602Z,13.7
2023-05-22T01:48:24.951Z,13.4
2023-05-22T01:53:58.560Z,13.1
2023-05-22T01:59:41.263Z,13
2023-05-22T02:05:05.007Z,12.8
2023-05-22T02:10:40.489Z,12.7
2023-05-22T02:16:12.989Z,12.7
2023-05-22T02:21:55.830Z,12.2
2023-05-22T02:27:24.409Z,12.3
2023-05-22T02:33:04.899Z,12.5
2023-05-22T02:44:03.845Z,12.5
2023-05-22T02:49:37.789Z,12.7
2023-05-22T02:55:19.721Z,12.6
2023-05-22T03:00:43.002Z,12.7
2023-05-22T03:06:32.513Z,12.9
2023-05-22T03:11:45.609Z,12.4
2023-05-22T03:17:21.684Z,12.3
2023-05-22T03:34:12.942Z,12.3
2023-05-22T03:39:30.909Z,12.1
2023-05-22T03:45:03.520Z,11.4
2023-05-22T03:50:42.914Z,11.1
2023-05-22T03:56:20.138Z,11.3
2023-05-22T04:02:08.151Z,11.4
2023-05-22T04:07:16.897Z,11.5
2023-05-22T04:18:32.575Z,12
2023-05-22T04:24:13.932Z,12.3
2023-05-22T04:29:39.752Z,12.6
2023-05-22T04:35:03.726Z,13
2023-05-22T04:40:42.157Z,13.3
2023-05-22T04:46:25.244Z,13.5
2023-05-22T04:52:08.667Z,13.7
2023-05-22T05:20:03.548Z,14
2023-05-22T05:25:32.058Z,14.1
2023-05-22T05:31:11.094Z,14
2023-05-22T05:36:43.233Z,14
2023-05-22T05:41:54.148Z,14.2
2023-05-22T05:47:37.937Z,14
2023-05-22T05:59:01.684Z,14.8
2023-05-22T06:04:29.707Z,15.6
2023-05-22T06:09:54.825Z,14.5
2023-05-22T06:26:56.909Z,14.7
2023-05-22T06:32:27.019Z,14.6
2023-05-22T06:37:54.936Z,15
2023-05-22T07:00:26.413Z,16.7
2023-05-22T07:05:58.680Z,16.6
2023-05-22T07:11:24.162Z,16.7
2023-05-22T07:16:54.027Z,16.4
2023-05-22T07:22:20.505Z,16.8
2023-05-22T08:01:50.611Z,17.3
2023-05-22T08:46:55.683Z,20.4
2023-05-22T08:57:48.350Z,20.3
2023-05-22T09:14:50.303Z,21.2
2023-05-22T09:26:06.357Z,20.1
2023-05-22T09:31:33.068Z,19.9
2023-05-22T09:37:14.937Z,20.6
2023-05-22T09:54:30.791Z,21.6
2023-05-22T09:59:45.235Z,21.1
2023-05-22T10:05:32.894Z,21.1
2023-05-22T12:04:17.982Z,23.5
2023-05-22T12:09:55.412Z,23.3
2023-05-22T12:15:25.865Z,24.6
2023-05-22T12:20:49.105Z,23.7
2023-05-22T12:26:40.989Z,25
2023-05-22T12:32:18.604Z,25.4
2023-05-22T12:37:45.741Z,24.5
2023-05-22T12:49:10.700Z,26.2
2023-05-22T12:54:42.278Z,26.5
2023-05-22T13:00:30.845Z,27.1
2023-05-22T13:06:12.334Z,26.4
2023-05-22T13:12:03.043Z,25
2023-05-22T13:17:41.143Z,24.9
2023-05-22T13:23:00.326Z,25.3
2023-05-22T13:29:02.339Z,26.3
2023-05-22T13:40:08.854Z,24
2023-05-22T14:14:10.288Z,24.5
2023-05-22T14:42:18.024Z,23.5
2023-05-22T15:04:58.016Z,23.1
2023-05-22T18:16:27.164Z,21.4
2023-05-22T18:22:03.409Z,21.3
